createdAt,value
2018-04-22T00:01:26.292Z,95457.27
2018-04-22T00:03:53.610Z,95455.77
2018-04-22T00:06:20.700Z,95451.98
2018-04-22T00:08:47.982Z,95445.73
2018-04-22T00:11:14.798Z,95449.44
2018-04-22T00:13:41.519Z,95450.37
2018-04-22T00:16:09.736Z,95450.37
2018-04-22T00:18:37.605Z,95448.02
2018-04-22T00:21:05.648Z,95441.69
2018-04-22T00:23:32.987Z,95440.70
2018-04-22T00:26:01.091Z,95440.55
2018-04-22T00:28:30.440Z,95450.49
2018-04-22T00:30:58.416Z,95448.19
2018-04-22T00:33:26.776Z,95449.27
2018-04-22T00:35:54.730Z,95451.16
2018-04-22T00:38:22.152Z,95453.10
2018-04-22T00:40:49.263Z,95459.84
2018-04-22T00:43:16.603Z,95458.67
2018-04-22T00:45:45.275Z,95454.56
2018-04-22T00:48:13.555Z,95457.86
2018-04-22T00:50:41.081Z,95459.75
2018-04-22T00:53:10.012Z,95453.42
2018-04-22T00:55:38.572Z,95449.10
2018-04-22T00:58:06.727Z,95448.02
2018-04-22T01:00:36.798Z,95456.64
2018-04-22T01:03:03.865Z,95452.55
2018-04-22T01:05:31.652Z,95455.67
2018-04-22T01:08:00.499Z,95458.37
2018-04-22T01:10:28.219Z,95452.87
2018-04-22T01:12:55.778Z,95453.18
2018-04-22T01:15:23.992Z,95459.55
2018-04-22T01:17:50.873Z,95460.62
2018-04-22T01:20:18.544Z,95457.77
2018-04-22T01:22:46.421Z,95457.93
2018-04-22T01:25:13.638Z,95450.36
2018-04-22T01:27:41.373Z,95444.16
2018-04-22T01:30:10.741Z,95444.78
2018-04-22T01:32:39.377Z,95437.27
2018-04-22T01:35:07.201Z,95446.68
2018-04-22T01:37:35.043Z,95435.44
2018-04-22T01:40:01.733Z,95444.37
2018-04-22T01:42:29.638Z,95442.97
2018-04-22T01:44:56.423Z,95437.41
2018-04-22T01:47:23.541Z,95439.79
2018-04-22T01:49:51.305Z,95436.66
2018-04-22T01:52:18.914Z,95441.65
2018-04-22T01:54:47.901Z,95435.11
2018-04-22T01:57:15.042Z,95438.88
2018-04-22T01:59:44.920Z,95431.99
2018-04-22T02:02:13.238Z,95431.44
2018-04-22T02:04:41.413Z,95427.23
2018-04-22T02:07:08.432Z,95428.30
2018-04-22T02:09:35.109Z,95433.53
2018-04-22T02:12:03.883Z,95431.32
2018-04-22T02:14:31.711Z,95431.80
2018-04-22T02:17:00.415Z,95428.30
2018-04-22T02:19:29.311Z,95432.05
2018-04-22T02:21:56.675Z,95432.07
2018-04-22T02:24:23.355Z,95424.59
2018-04-22T02:26:51.929Z,95429.44
2018-04-22T02:29:19.972Z,95426.39
2018-04-22T02:31:48.276Z,95425.64
2018-04-22T02:34:15.992Z,95422.83
2018-04-22T02:36:42.976Z,95420.37
2018-04-22T02:39:10.059Z,95421.70
2018-04-22T02:41:37.926Z,95416.23
2018-04-22T02:44:05.477Z,95420.22
2018-04-22T02:46:32.281Z,95423.51
2018-04-22T02:49:00.883Z,95418.49
2018-04-22T02:51:28.793Z,95419.64
2018-04-22T02:53:59.696Z,95413.66
2018-04-22T02:56:26.798Z,95410.94
2018-04-22T02:58:55.697Z,95405.70
2018-04-22T03:01:24.422Z,95410.03
2018-04-22T03:03:52.627Z,95401.44
2018-04-22T03:06:20.125Z,95401.91
2018-04-22T03:08:48.228Z,95401.50
2018-04-22T03:11:16.445Z,95407.48
2018-04-22T03:13:44.932Z,95411.84
2018-04-22T03:16:12.492Z,95407.81
2018-04-22T03:18:40.667Z,95414.42
2018-04-22T03:21:08.085Z,95414.36
2018-04-22T03:23:35.266Z,95414.45
2018-04-22T03:26:02.994Z,95424.77
2018-04-22T03:28:30.865Z,95423.46
2018-04-22T03:31:00.108Z,95420.67
2018-04-22T03:33:27.875Z,95416.94
2018-04-22T03:35:55.435Z,95416.42
2018-04-22T03:38:23.490Z,95418.16
2018-04-22T03:40:50.232Z,95422.39
2018-04-22T03:43:16.924Z,95423.27
2018-04-22T03:45:45.243Z,95440.99
2018-04-22T03:48:12.157Z,95443.75
2018-04-22T03:53:13.340Z,95453.43
2018-04-22T03:55:40.689Z,95459.48
2018-04-22T03:58:09.986Z,95465.08
2018-04-22T04:00:37.777Z,95467.96
2018-04-22T04:03:04.634Z,95465.31
2018-04-22T04:05:31.371Z,95470.39
2018-04-22T04:07:59.258Z,95468.13
2018-04-22T04:10:26.932Z,95469.21
2018-04-22T04:12:55.311Z,95459.14
2018-04-22T04:15:22.891Z,95462.64
2018-04-22T04:18:03.867Z,95465.52
2018-04-22T04:20:43.315Z,95461.66
2018-04-22T04:23:10.926Z,95465.36
2018-04-22T04:25:53.698Z,95463.54
2018-04-22T04:28:22.561Z,95460.84
2018-04-22T04:30:49.767Z,95458.98
2018-04-22T04:33:17.043Z,95456.44
2018-04-22T04:35:44.656Z,95470.55
2018-04-22T04:38:13.377Z,95457.95
2018-04-22T04:40:44.116Z,95446.02
2018-04-22T04:43:11.363Z,95449.86
2018-04-22T04:45:46.271Z,95454.97
2018-04-22T04:48:13.566Z,95451.92
2018-04-22T04:50:41.993Z,95451.27
2018-04-22T04:53:10.278Z,95450.80
2018-04-22T04:55:37.998Z,95452.76
2018-04-22T04:58:05.596Z,95456.45
2018-04-22T05:00:32.360Z,95460.41
2018-04-22T05:02:59.143Z,95445.92
2018-04-22T05:05:27.296Z,95445.27
2018-04-22T05:07:55.295Z,95439.45
2018-04-22T05:10:23.051Z,95437.50
2018-04-22T05:12:53.173Z,95436.27
2018-04-22T05:15:20.081Z,95441.92
2018-04-22T05:17:47.624Z,95431.84
2018-04-22T05:20:15.620Z,95432.50
2018-04-22T05:22:45.161Z,95435.81
2018-04-22T05:25:13.749Z,95438.48
2018-04-22T05:27:41.691Z,95436.09
2018-04-22T05:30:10.207Z,95444.41
2018-04-22T05:32:37.129Z,95444.25
2018-04-22T05:35:04.795Z,95441.59
2018-04-22T05:37:34.728Z,95432.00
2018-04-22T05:40:02.758Z,95437.40
2018-04-22T05:42:31.062Z,95445.22
2018-04-22T05:44:59.255Z,95446.32
2018-04-22T05:47:26.910Z,95442.52
2018-04-22T05:49:54.868Z,95446.17
2018-04-22T05:52:22.363Z,95446.53
2018-04-22T05:54:50.572Z,95433.69
2018-04-22T05:57:18.982Z,95433.17
2018-04-22T05:59:46.940Z,95433.06
2018-04-22T06:02:14.549Z,95431.30
2018-04-22T06:04:43.170Z,95433.70
2018-04-22T06:07:10.527Z,95440.34
2018-04-22T06:09:38.088Z,95433.48
2018-04-22T06:12:05.395Z,95439.69
2018-04-22T06:14:34.251Z,95438.77
2018-04-22T06:17:01.812Z,95436.09
2018-04-22T06:19:30.995Z,95430.83
2018-04-22T06:21:58.830Z,95429.09
2018-04-22T06:24:26.375Z,95424.64
2018-04-22T06:26:53.478Z,95427.06
2018-04-22T06:29:20.285Z,95432.23
2018-04-22T06:31:48.050Z,95426.34
2018-04-22T06:34:15.251Z,95416.75
2018-04-22T06:36:43.008Z,95417.77
2018-04-22T06:39:11.312Z,95417.02
2018-04-22T06:41:38.514Z,95412.99
2018-04-22T06:44:05.790Z,95414.69
2018-04-22T06:46:33.709Z,95408.09
2018-04-22T06:49:07.018Z,95410.90
2018-04-22T06:51:33.541Z,95403.16
2018-04-22T06:54:01.673Z,95400.86
2018-04-22T06:56:29.849Z,95395.42
2018-04-22T06:58:57.161Z,95397.55
2018-04-22T07:01:25.010Z,95394.56
2018-04-22T07:03:55.352Z,95392.26
2018-04-22T07:06:22.586Z,95388.93
2018-04-22T07:08:49.942Z,95386.94
2018-04-22T07:11:16.979Z,95384.38
2018-04-22T07:13:47.165Z,95385.55
2018-04-22T07:16:15.217Z,95390.22
2018-04-22T07:18:43.261Z,95388.19
2018-04-22T07:21:17.016Z,95386.70
2018-04-22T07:23:45.933Z,95386.22
2018-04-22T07:26:13.108Z,95385.96
2018-04-22T07:28:41.263Z,95387.09
2018-04-22T07:31:11.825Z,95392.67
2018-04-22T07:33:39.739Z,95388.83
2018-04-22T07:36:13.439Z,95384.98
2018-04-22T07:38:40.735Z,95387.92
2018-04-22T07:41:08.752Z,95389.59
2018-04-22T07:43:38.756Z,95389.25
2018-04-22T07:46:07.905Z,95392.40
2018-04-22T07:48:35.192Z,95394.52
2018-04-22T07:51:03.023Z,95392.19
2018-04-22T07:53:30.836Z,95391.58
2018-04-22T07:56:00.230Z,95390.81
2018-04-22T07:58:29.010Z,95385.52
2018-04-22T08:00:56.241Z,95389.60
2018-04-22T08:03:24.546Z,95385.78
2018-04-22T08:05:51.691Z,95385.92
2018-04-22T08:08:20.889Z,95379.28
2018-04-22T08:10:47.536Z,95382.16
2018-04-22T08:13:17.418Z,95384.75
2018-04-22T08:15:45.446Z,95377.77
2018-04-22T08:18:12.412Z,95376.70
2018-04-22T08:20:40.294Z,95374.64
2018-04-22T08:23:08.454Z,95373.31
2018-04-22T08:25:35.756Z,95371.28
2018-04-22T08:28:03.615Z,95360.69
2018-04-22T08:30:31.955Z,95363.04
2018-04-22T08:33:01.040Z,95364.95
2018-04-22T08:35:28.007Z,95366.20
2018-04-22T08:37:56.437Z,95367.08
2018-04-22T08:40:25.379Z,95362.89
2018-04-22T08:42:56.600Z,95362.93
2018-04-22T08:45:25.380Z,95353.77
2018-04-22T08:47:56.064Z,95352.56
2018-04-22T08:50:24.427Z,95360.31
2018-04-22T08:52:52.230Z,95345.25
2018-04-22T08:55:19.766Z,95346.26
2018-04-22T08:57:47.220Z,95343.63
2018-04-22T09:00:15.449Z,95346.77
2018-04-22T09:02:42.806Z,95347.94
2018-04-22T09:05:11.557Z,95342.73
2018-04-22T09:07:40.818Z,95340.70
2018-04-22T09:10:08.760Z,95334.56
2018-04-22T09:12:36.341Z,95331.12
2018-04-22T09:15:04.684Z,95324.71
2018-04-22T09:17:31.408Z,95328.36
2018-04-22T09:20:00.039Z,95323.69
2018-04-22T09:22:28.273Z,95320.19
2018-04-22T09:24:56.636Z,95316.65
2018-04-22T09:27:23.713Z,95315.02
2018-04-22T09:29:50.695Z,95317.82
2018-04-22T09:32:18.038Z,95315.28
2018-04-22T09:34:46.293Z,95303.12
2018-04-22T09:37:14.122Z,95302.59
2018-04-22T09:39:42.734Z,95287.49
2018-04-22T09:42:10.744Z,95301.42
2018-04-22T09:44:38.886Z,95299.69
2018-04-22T09:47:06.194Z,95300.58
2018-04-22T09:49:35.455Z,95287.20
2018-04-22T09:52:05.448Z,95305.03
2018-04-22T09:54:32.638Z,95294.87
2018-04-22T09:57:00.085Z,95289.74
2018-04-22T09:59:28.196Z,95289.77
2018-04-22T10:01:59.701Z,95284.25
2018-04-22T10:04:29.187Z,95286.27
2018-04-22T10:06:57.004Z,95286.45
2018-04-22T10:09:25.937Z,95292.12
2018-04-22T10:11:52.665Z,95287.43
2018-04-22T10:14:19.633Z,95287.49
2018-04-22T10:16:49.747Z,95287.97
2018-04-22T10:19:20.028Z,95286.52
2018-04-22T10:21:51.916Z,95275.20
2018-04-22T10:24:24.061Z,95274.69
2018-04-22T10:26:57.008Z,95274.34
2018-04-22T10:29:32.270Z,95271.47
2018-04-22T10:32:04.516Z,95267.63
2018-04-22T10:34:35.949Z,95274.64
2018-04-22T10:37:04.016Z,95266.81
2018-04-22T10:39:34.029Z,95260.27
2018-04-22T10:42:03.114Z,95256.40
2018-04-22T10:44:30.528Z,95259.05
2018-04-22T10:46:58.786Z,95255.31
2018-04-22T10:49:25.625Z,95261.13
2018-04-22T10:51:55.360Z,95256.28
2018-04-22T10:54:29.997Z,95239.16
2018-04-22T10:57:00.631Z,95237.00
2018-04-22T10:59:32.064Z,95235.69
2018-04-22T11:02:00.986Z,95250.55
2018-04-22T11:04:31.348Z,95233.67
2018-04-22T11:07:01.313Z,95231.42
2018-04-22T11:09:30.183Z,95230.73
2018-04-22T11:11:59.866Z,95221.58
2018-04-22T11:14:29.717Z,95219.25
2018-04-22T11:17:01.645Z,95220.22
2018-04-22T11:19:38.884Z,95213.14
2018-04-22T11:22:10.005Z,95210.96
2018-04-22T11:24:40.476Z,95207.62
2018-04-22T11:27:11.613Z,95206.78
2018-04-22T11:29:42.915Z,95207.87
2018-04-22T11:32:14.303Z,95202.59
2018-04-22T11:34:44.213Z,95189.70
2018-04-22T11:37:14.446Z,95194.77
2018-04-22T11:39:45.158Z,95199.44
2018-04-22T11:42:14.402Z,95189.64
2018-04-22T11:44:48.326Z,95189.59
2018-04-22T11:47:21.031Z,95189.80
2018-04-22T11:49:54.223Z,95182.66
2018-04-22T11:52:24.693Z,95184.10
2018-04-22T11:54:59.169Z,95183.49
2018-04-22T11:57:30.550Z,95178.89
2018-04-22T12:00:02.853Z,95175.56
2018-04-22T12:02:32.771Z,95170.08
2018-04-22T12:05:02.944Z,95163.56
2018-04-22T12:07:30.189Z,95159.72
2018-04-22T12:09:57.668Z,95167.25
2018-04-22T12:12:25.882Z,95165.89
2018-04-22T12:14:56.952Z,95154.36
2018-04-22T12:17:24.772Z,95158.91
2018-04-22T12:19:53.751Z,95153.95
2018-04-22T12:22:21.857Z,95149.15
2018-04-22T12:24:54.972Z,95146.89
2018-04-22T12:27:22.808Z,95146.25
2018-04-22T12:29:50.611Z,95134.36
2018-04-22T12:32:21.660Z,95126.13
2018-04-22T12:34:53.075Z,95122.26
2018-04-22T12:37:21.439Z,95120.08
2018-04-22T12:39:48.657Z,95115.20
2018-04-22T12:42:18.428Z,95107.66
2018-04-22T12:44:46.698Z,95126.09
2018-04-22T12:47:17.581Z,95113.75
2018-04-22T12:49:45.075Z,95110.92
2018-04-22T12:52:14.160Z,95105.83
2018-04-22T12:54:44.323Z,95107.05
2018-04-22T12:57:12.560Z,95105.77
2018-04-22T12:59:39.120Z,95102.57
2018-04-22T13:02:06.624Z,95101.89
2018-04-22T13:04:34.756Z,95099.58
2018-04-22T13:07:02.079Z,95091.69
2018-04-22T13:09:31.452Z,95086.89
2018-04-22T13:12:00.576Z,95090.59
2018-04-22T13:14:27.786Z,95088.28
2018-04-22T13:16:56.748Z,95080.25
2018-04-22T13:19:26.976Z,95081.50
2018-04-22T13:21:54.283Z,95077.61
2018-04-22T13:24:22.117Z,95075.47
2018-04-22T13:26:49.511Z,95067.55
2018-04-22T13:29:16.212Z,95067.23
2018-04-22T13:31:45.075Z,95075.52
2018-04-22T13:34:13.342Z,95068.92
2018-04-22T13:36:42.248Z,95074.64
2018-04-22T13:39:09.566Z,95067.05
2018-04-22T13:41:38.226Z,95058.65
2018-04-22T13:44:06.824Z,95058.31
2018-04-22T13:46:34.411Z,95063.80
2018-04-22T13:49:02.486Z,95059.33
2018-04-22T13:51:31.145Z,95058.38
2018-04-22T13:53:59.432Z,95057.75
2018-04-22T13:56:27.798Z,95050.67
2018-04-22T13:58:55.157Z,95049.56
2018-04-22T14:01:22.607Z,95046.53
2018-04-22T14:03:50.396Z,95037.95
2018-04-22T14:06:17.683Z,95046.21
2018-04-22T14:08:45.119Z,95044.27
2018-04-22T14:11:13.829Z,95042.80
2018-04-22T14:13:40.847Z,95042.77
2018-04-22T14:16:07.585Z,95047.14
2018-04-22T14:18:34.300Z,95045.92
2018-04-22T14:21:01.466Z,95044.72
2018-04-22T14:23:31.575Z,95045.22
2018-04-22T14:25:59.090Z,95041.53
2018-04-22T14:28:27.644Z,95048.57
2018-04-22T14:30:54.284Z,95043.39
2018-04-22T14:33:21.776Z,95036.81
2018-04-22T14:35:50.346Z,95042.09
2018-04-22T14:38:17.524Z,95033.72
2018-04-22T14:40:45.317Z,95035.66
2018-04-22T14:43:12.529Z,95028.98
2018-04-22T14:45:52.914Z,95032.51
2018-04-22T14:48:20.572Z,95034.38
2018-04-22T14:50:47.322Z,95036.27
2018-04-22T14:53:14.778Z,95033.97
2018-04-22T14:55:43.283Z,95029.78
2018-04-22T14:58:12.356Z,95030.52
2018-04-22T15:00:42.128Z,95023.77
2018-04-22T15:03:09.696Z,95027.17
2018-04-22T15:05:37.502Z,95027.95
2018-04-22T15:08:05.050Z,95030.84
2018-04-22T15:10:32.920Z,95024.27
2018-04-22T15:13:01.573Z,95028.20
2018-04-22T15:15:29.868Z,95029.41
2018-04-22T15:17:58.036Z,95024.79
2018-04-22T15:20:25.850Z,95025.13
2018-04-22T15:22:53.451Z,95029.63
2018-04-22T15:25:23.076Z,95027.23
2018-04-22T15:27:50.471Z,95032.08
2018-04-22T15:30:17.695Z,95018.13
2018-04-22T15:32:44.608Z,95027.36
2018-04-22T15:35:12.092Z,95027.89
2018-04-22T15:37:40.600Z,95019.98
2018-04-22T15:40:08.565Z,95022.19
2018-04-22T15:42:37.907Z,95014.49
2018-04-22T15:45:07.915Z,95019.58
2018-04-22T15:47:34.918Z,95018.31
2018-04-22T15:50:04.345Z,95027.48
2018-04-22T15:52:31.267Z,95013.00
2018-04-22T15:54:58.500Z,95020.20
2018-04-22T15:57:26.326Z,95013.97
2018-04-22T15:59:55.773Z,95017.04
2018-04-22T16:02:25.815Z,95015.23
2018-04-22T16:07:35.660Z,95021.56
2018-04-22T16:10:02.987Z,95018.40
2018-04-22T16:12:29.915Z,95013.22
2018-04-22T16:14:56.929Z,95019.17
2018-04-22T16:17:25.449Z,95023.05
2018-04-22T16:19:52.436Z,95017.09
2018-04-22T16:22:20.051Z,95023.32
2018-04-22T16:24:47.713Z,95026.33
2018-04-22T16:27:16.105Z,95029.41
2018-04-22T16:36:16.564Z,95037.19
2018-04-22T16:38:52.337Z,95038.33
2018-04-22T16:41:19.092Z,95030.98
2018-04-22T16:43:47.546Z,95031.77
2018-04-22T16:46:14.271Z,95033.97
2018-04-22T16:48:40.972Z,95037.53
2018-04-22T16:51:08.553Z,95038.80
2018-04-22T16:53:36.304Z,95031.50
2018-04-22T16:56:04.912Z,95041.83
2018-04-22T16:58:32.015Z,95036.31
2018-04-22T17:00:59.025Z,95045.34
2018-04-22T17:03:29.301Z,95040.95
2018-04-22T17:05:58.460Z,95051.23
2018-04-22T17:08:24.968Z,95045.19
2018-04-22T17:10:51.863Z,95050.41
2018-04-22T17:13:23.700Z,95050.92
2018-04-22T17:15:53.325Z,95055.31
2018-04-22T17:18:21.907Z,95054.83
2018-04-22T17:20:49.953Z,95053.57
2018-04-22T17:23:21.123Z,95052.96
2018-04-22T17:25:51.561Z,95059.31
2018-04-22T17:28:22.803Z,95062.37
2018-04-22T17:30:49.697Z,95070.72
2018-04-22T17:33:19.316Z,95069.41
2018-04-22T17:35:46.075Z,95066.35
2018-04-22T17:38:14.718Z,95072.74
2018-04-22T17:40:43.056Z,95081.59
2018-04-22T17:43:10.931Z,95082.11
2018-04-22T17:45:37.549Z,95085.16
2018-04-22T17:48:07.582Z,95088.48
2018-04-22T17:50:35.435Z,95093.56
2018-04-22T17:53:02.603Z,95094.75
2018-04-22T17:55:30.096Z,95091.03
2018-04-22T17:57:57.019Z,95094.06
2018-04-22T18:00:25.133Z,95098.94
2018-04-22T18:02:51.895Z,95108.37
2018-04-22T18:05:19.372Z,95106.61
2018-04-22T18:07:47.222Z,95113.80
2018-04-22T18:10:13.905Z,95114.25
2018-04-22T18:12:40.700Z,95120.40
2018-04-22T18:15:07.470Z,95129.02
2018-04-22T18:17:36.259Z,95129.16
2018-04-22T18:20:03.545Z,95133.37
2018-04-22T18:22:33.250Z,95131.89
2018-04-22T18:25:03.436Z,95141.17
2018-04-22T18:27:30.624Z,95142.31
2018-04-22T18:29:57.947Z,95142.16
2018-04-22T18:32:25.040Z,95143.84
2018-04-22T18:34:52.030Z,95138.58
2018-04-22T18:37:19.245Z,95144.83
2018-04-22T18:39:47.615Z,95146.20
2018-04-22T18:42:16.317Z,95142.48
2018-04-22T18:44:47.361Z,95153.03
2018-04-22T18:47:16.597Z,95153.78
2018-04-22T18:49:45.269Z,95156.27
2018-04-22T18:52:12.668Z,95157.20
2018-04-22T18:54:41.888Z,95161.94
2018-04-22T18:57:10.255Z,95166.25
2018-04-22T18:59:37.227Z,95159.00
2018-04-22T19:02:05.384Z,95161.42
2018-04-22T19:04:33.980Z,95168.09
2018-04-22T19:07:01.188Z,95159.36
2018-04-22T19:09:28.820Z,95164.27
2018-04-22T19:11:56.472Z,95164.20
2018-04-22T19:14:23.216Z,95164.64
2018-04-22T19:16:52.170Z,95171.09
2018-04-22T19:19:20.111Z,95173.85
2018-04-22T19:21:47.378Z,95176.02
2018-04-22T19:24:15.897Z,95174.22
2018-04-22T19:26:42.947Z,95173.52
2018-04-22T19:29:09.577Z,95175.37
2018-04-22T19:31:36.657Z,95179.86
2018-04-22T19:34:04.084Z,95175.03
2018-04-22T19:36:30.866Z,95174.84
2018-04-22T19:38:58.709Z,95178.63
2018-04-22T19:41:25.619Z,95181.30
2018-04-22T19:43:52.703Z,95177.20
2018-04-22T19:46:20.874Z,95183.74
2018-04-22T19:48:48.928Z,95178.06
2018-04-22T19:51:16.688Z,95178.58
2018-04-22T19:53:44.097Z,95181.75
2018-04-22T19:56:11.790Z,95178.38
2018-04-22T19:58:39.627Z,95182.38
2018-04-22T20:01:08.042Z,95178.91
2018-04-22T20:03:37.867Z,95179.83
2018-04-22T20:06:05.808Z,95179.20
2018-04-22T20:08:32.841Z,95175.23
2018-04-22T20:11:00.395Z,95177.69
2018-04-22T20:13:28.436Z,95173.61
2018-04-22T20:15:56.983Z,95173.20
2018-04-22T20:18:25.768Z,95176.87
2018-04-22T20:20:54.406Z,95177.89
2018-04-22T20:23:23.220Z,95176.26
2018-04-22T20:25:54.354Z,95178.42
2018-04-22T20:28:21.814Z,95180.34
2018-04-22T20:30:51.607Z,95180.34
2018-04-22T20:33:19.306Z,95181.16
2018-04-22T20:35:47.521Z,95179.24
2018-04-22T20:38:14.723Z,95177.91
2018-04-22T20:40:45.485Z,95181.66
2018-04-22T20:43:13.890Z,95183.19
2018-04-22T20:45:44.599Z,95179.33
2018-04-22T20:48:19.144Z,95178.20
2018-04-22T20:50:53.575Z,95182.55
2018-04-22T20:53:23.479Z,95182.73
2018-04-22T20:55:53.030Z,95185.29
2018-04-22T20:58:20.139Z,95178.78
2018-04-22T21:00:48.731Z,95174.01
2018-04-22T21:03:17.932Z,95179.98
2018-04-22T21:05:46.031Z,95187.02
2018-04-22T21:08:14.324Z,95191.27
2018-04-22T21:10:42.578Z,95189.13
2018-04-22T21:13:09.371Z,95192.69
2018-04-22T21:15:37.088Z,95184.86
2018-04-22T21:18:06.720Z,95187.19
2018-04-22T21:20:36.564Z,95193.69
2018-04-22T21:23:05.881Z,95194.69
2018-04-22T21:25:35.229Z,95194.80
2018-04-22T21:28:04.716Z,95194.18
2018-04-22T21:30:31.868Z,95200.36
2018-04-22T21:33:03.725Z,95201.98
2018-04-22T21:35:30.923Z,95207.97
2018-04-22T21:37:57.805Z,95196.84
2018-04-22T21:40:26.891Z,95200.11
2018-04-22T21:42:55.074Z,95201.94
2018-04-22T21:45:21.913Z,95204.75
2018-04-22T21:47:49.823Z,95209.93
2018-04-22T21:50:17.172Z,95213.29
2018-04-22T21:52:44.531Z,95208.92
2018-04-22T21:55:11.560Z,95213.48
2018-04-22T21:57:40.944Z,95211.26
2018-04-22T22:00:09.265Z,95210.60
2018-04-22T22:02:40.340Z,95208.75
2018-04-22T22:05:10.925Z,95214.31
2018-04-22T22:07:40.135Z,95205.80
2018-04-22T22:10:07.164Z,95205.97
2018-04-22T22:12:35.675Z,95205.95
2018-04-22T22:15:03.762Z,95206.52
2018-04-22T22:17:31.976Z,95200.63
2018-04-22T22:20:03.972Z,95195.16
2018-04-22T22:22:32.887Z,95193.59
2018-04-22T22:25:01.865Z,95194.20
2018-04-22T22:27:30.058Z,95196.23
2018-04-22T22:30:00.719Z,95198.58
2018-04-22T22:32:27.794Z,95196.61
2018-04-22T22:34:56.955Z,95204.48
2018-04-22T22:37:29.105Z,95209.22
2018-04-22T22:40:00.111Z,95207.59
2018-04-22T22:42:28.401Z,95205.77
2018-04-22T22:44:58.648Z,95203.30
2018-04-22T22:47:27.260Z,95202.62
2018-04-22T22:49:55.511Z,95198.97
2018-04-22T22:52:22.525Z,95199.17
2018-04-22T22:54:50.156Z,95204.85
2018-04-22T22:57:17.171Z,95200.35
2018-04-22T22:59:45.749Z,95200.76
2018-04-22T23:02:13.806Z,95201.97
2018-04-22T23:04:41.536Z,95202.69
2018-04-22T23:07:09.364Z,95196.90
2018-04-22T23:09:37.412Z,95196.96
2018-04-22T23:12:06.317Z,95197.37
2018-04-22T23:14:34.633Z,95197.33
2018-04-22T23:30:04.330Z,95198.17
2018-04-22T23:32:30.778Z,95203.14
2018-04-22T23:34:57.290Z,95210.27
2018-04-22T23:37:23.745Z,95202.38
2018-04-22T23:39:50.240Z,95198.41
2018-04-22T23:42:16.780Z,95197.36
2018-04-22T23:44:43.282Z,95197.48
2018-04-22T23:47:09.808Z,95202.84
2018-04-22T23:49:36.235Z,95193.42
2018-04-22T23:52:02.743Z,95193.38
2018-04-22T23:54:29.204Z,95190.94
2018-04-22T23:56:55.641Z,95192.82
2018-04-22T23:59:22.149Z,95192.09
